sensor_id;sensor_type;location;lat;lon;timestamp;P1;durP1;ratioP1;P2;durP2;ratioP2
76433;SDS011;65265;53.200;6.080;2023-02-10T00:02:19;14.63;;;2.22;;
76433;SDS011;65265;53.200;6.080;2023-02-10T00:07:12;9.13;;;3.15;;
76433;SDS011;65265;53.200;6.080;2023-02-10T00:12:04;9.85;;;2.72;;
76433;SDS011;65265;53.200;6.080;2023-02-10T00:16:58;7.78;;;2.13;;
76433;SDS011;65265;53.200;6.080;2023-02-10T00:21:50;15.88;;;3.47;;
76433;SDS011;65265;53.200;6.080;2023-02-10T00:26:43;11.85;;;2.40;;
76433;SDS011;65265;53.200;6.080;2023-02-10T00:31:35;7.65;;;2.83;;
76433;SDS011;65265;53.200;6.080;2023-02-10T00:36:27;11.02;;;2.78;;
76433;SDS011;65265;53.200;6.080;2023-02-10T00:41:19;9.98;;;1.85;;
76433;SDS011;65265;53.200;6.080;2023-02-10T00:46:14;7.25;;;1.85;;
76433;SDS011;65265;53.200;6.080;2023-02-10T00:51:07;15.48;;;3.00;;
76433;SDS011;65265;53.200;6.080;2023-02-10T00:55:59;8.75;;;2.33;;
76433;SDS011;65265;53.200;6.080;2023-02-10T01:00:52;10.45;;;3.40;;
76433;SDS011;65265;53.200;6.080;2023-02-10T01:05:46;11.95;;;2.67;;
76433;SDS011;65265;53.200;6.080;2023-02-10T01:10:37;7.72;;;3.00;;
76433;SDS011;65265;53.200;6.080;2023-02-10T01:15:30;12.43;;;2.75;;
76433;SDS011;65265;53.200;6.080;2023-02-10T01:20:22;9.27;;;2.28;;
76433;SDS011;65265;53.200;6.080;2023-02-10T01:25:16;8.63;;;3.08;;
76433;SDS011;65265;53.200;6.080;2023-02-10T01:30:08;11.60;;;3.95;;
76433;SDS011;65265;53.200;6.080;2023-02-10T01:35:01;14.50;;;3.17;;
76433;SDS011;65265;53.200;6.080;2023-02-10T01:39:52;8.52;;;2.58;;
76433;SDS011;65265;53.200;6.080;2023-02-10T01:50:10;8.63;;;2.40;;
76433;SDS011;65265;53.200;6.080;2023-02-10T01:55:03;15.88;;;2.58;;
76433;SDS011;65265;53.200;6.080;2023-02-10T01:59:57;15.25;;;2.88;;
76433;SDS011;65265;53.200;6.080;2023-02-10T02:04:53;11.88;;;2.95;;
76433;SDS011;65265;53.200;6.080;2023-02-10T02:09:49;13.63;;;4.00;;
76433;SDS011;65265;53.200;6.080;2023-02-10T02:14:43;9.15;;;2.33;;
76433;SDS011;65265;53.200;6.080;2023-02-10T02:25:10;6.70;;;1.90;;
76433;SDS011;65265;53.200;6.080;2023-02-10T02:30:19;6.78;;;2.58;;
76433;SDS011;65265;53.200;6.080;2023-02-10T02:35:32;12.68;;;2.53;;
76433;SDS011;65265;53.200;6.080;2023-02-10T02:40:31;11.00;;;3.00;;
76433;SDS011;65265;53.200;6.080;2023-02-10T02:45:25;13.10;;;3.35;;
76433;SDS011;65265;53.200;6.080;2023-02-10T02:50:25;12.70;;;3.50;;
76433;SDS011;65265;53.200;6.080;2023-02-10T02:55:24;10.88;;;3.55;;
76433;SDS011;65265;53.200;6.080;2023-02-10T03:00:23;12.07;;;4.05;;
76433;SDS011;65265;53.200;6.080;2023-02-10T03:05:18;14.93;;;4.85;;
76433;SDS011;65265;53.200;6.080;2023-02-10T03:10:11;14.98;;;4.93;;
76433;SDS011;65265;53.200;6.080;2023-02-10T03:15:04;14.88;;;4.55;;
76433;SDS011;65265;53.200;6.080;2023-02-10T03:24:48;18.95;;;6.03;;
76433;SDS011;65265;53.200;6.080;2023-02-10T03:29:40;11.82;;;5.32;;
76433;SDS011;65265;53.200;6.080;2023-02-10T03:34:34;14.85;;;5.03;;
76433;SDS011;65265;53.200;6.080;2023-02-10T03:39:25;15.00;;;5.13;;
76433;SDS011;65265;53.200;6.080;2023-02-10T03:44:17;14.75;;;5.45;;
76433;SDS011;65265;53.200;6.080;2023-02-10T03:49:09;15.43;;;4.47;;
76433;SDS011;65265;53.200;6.080;2023-02-10T03:54:02;11.65;;;4.28;;
76433;SDS011;65265;53.200;6.080;2023-02-10T03:58:54;10.10;;;4.55;;
76433;SDS011;65265;53.200;6.080;2023-02-10T04:03:46;6.47;;;2.83;;
76433;SDS011;65265;53.200;6.080;2023-02-10T04:08:39;12.13;;;3.67;;
76433;SDS011;65265;53.200;6.080;2023-02-10T04:13:32;14.60;;;3.88;;
76433;SDS011;65265;53.200;6.080;2023-02-10T04:18:24;10.43;;;3.83;;
76433;SDS011;65265;53.200;6.080;2023-02-10T04:23:16;13.45;;;2.50;;
76433;SDS011;65265;53.200;6.080;2023-02-10T04:28:08;13.05;;;2.65;;
76433;SDS011;65265;53.200;6.080;2023-02-10T04:33:01;11.18;;;3.22;;
76433;SDS011;65265;53.200;6.080;2023-02-10T04:37:53;5.75;;;2.10;;
76433;SDS011;65265;53.200;6.080;2023-02-10T04:42:46;13.23;;;4.15;;
76433;SDS011;65265;53.200;6.080;2023-02-10T04:47:38;7.80;;;2.55;;
76433;SDS011;65265;53.200;6.080;2023-02-10T04:52:32;10.35;;;2.30;;
76433;SDS011;65265;53.200;6.080;2023-02-10T04:57:24;7.05;;;2.63;;
76433;SDS011;65265;53.200;6.080;2023-02-10T05:02:16;10.30;;;4.40;;
76433;SDS011;65265;53.200;6.080;2023-02-10T05:07:08;9.18;;;3.25;;
76433;SDS011;65265;53.200;6.080;2023-02-10T05:12:02;14.25;;;2.42;;
76433;SDS011;65265;53.200;6.080;2023-02-10T05:16:53;6.97;;;2.58;;
76433;SDS011;65265;53.200;6.080;2023-02-10T05:21:45;12.13;;;3.42;;
76433;SDS011;65265;53.200;6.080;2023-02-10T05:26:37;6.10;;;2.38;;
76433;SDS011;65265;53.200;6.080;2023-02-10T05:31:30;14.27;;;3.78;;
76433;SDS011;65265;53.200;6.080;2023-02-10T05:36:23;9.88;;;3.67;;
76433;SDS011;65265;53.200;6.080;2023-02-10T05:41:14;12.70;;;4.07;;
76433;SDS011;65265;53.200;6.080;2023-02-10T05:46:06;9.15;;;3.50;;
76433;SDS011;65265;53.200;6.080;2023-02-10T05:50:59;15.27;;;5.05;;
76433;SDS011;65265;53.200;6.080;2023-02-10T05:55:51;15.40;;;3.65;;
76433;SDS011;65265;53.200;6.080;2023-02-10T06:00:43;12.25;;;4.15;;
76433;SDS011;65265;53.200;6.080;2023-02-10T06:05:35;10.05;;;4.25;;
76433;SDS011;65265;53.200;6.080;2023-02-10T06:10:29;11.52;;;4.05;;
76433;SDS011;65265;53.200;6.080;2023-02-10T06:15:21;9.93;;;3.90;;
76433;SDS011;65265;53.200;6.080;2023-02-10T06:20:13;15.20;;;4.30;;
76433;SDS011;65265;53.200;6.080;2023-02-10T06:25:05;16.80;;;5.07;;
76433;SDS011;65265;53.200;6.080;2023-02-10T06:29:58;9.45;;;4.18;;
76433;SDS011;65265;53.200;6.080;2023-02-10T06:34:50;16.65;;;4.72;;
76433;SDS011;65265;53.200;6.080;2023-02-10T06:39:42;13.70;;;4.10;;
76433;SDS011;65265;53.200;6.080;2023-02-10T06:44:34;11.30;;;5.40;;
76433;SDS011;65265;53.200;6.080;2023-02-10T06:49:27;7.78;;;4.40;;
76433;SDS011;65265;53.200;6.080;2023-02-10T06:54:19;12.30;;;4.85;;
76433;SDS011;65265;53.200;6.080;2023-02-10T06:59:11;10.20;;;4.80;;
76433;SDS011;65265;53.200;6.080;2023-02-10T07:04:02;16.40;;;6.07;;
76433;SDS011;65265;53.200;6.080;2023-02-10T07:08:56;16.33;;;5.18;;
76433;SDS011;65265;53.200;6.080;2023-02-10T07:13:47;21.08;;;6.72;;
76433;SDS011;65265;53.200;6.080;2023-02-10T07:18:39;15.50;;;4.68;;
76433;SDS011;65265;53.200;6.080;2023-02-10T07:23:31;14.38;;;6.53;;
76433;SDS011;65265;53.200;6.080;2023-02-10T07:28:27;19.40;;;6.57;;
76433;SDS011;65265;53.200;6.080;2023-02-10T07:33:30;17.52;;;5.88;;
76433;SDS011;65265;53.200;6.080;2023-02-10T07:38:23;15.10;;;6.90;;
76433;SDS011;65265;53.200;6.080;2023-02-10T07:43:37;11.35;;;5.25;;
76433;SDS011;65265;53.200;6.080;2023-02-10T07:48:29;16.80;;;5.93;;
76433;SDS011;65265;53.200;6.080;2023-02-10T07:54:03;14.23;;;5.00;;
76433;SDS011;65265;53.200;6.080;2023-02-10T07:58:40;19.55;;;6.18;;
76433;SDS011;65265;53.200;6.080;2023-02-10T08:03:31;19.27;;;6.55;;
76433;SDS011;65265;53.200;6.080;2023-02-10T08:08:25;13.55;;;6.05;;
76433;SDS011;65265;53.200;6.080;2023-02-10T08:13:17;14.90;;;5.45;;
76433;SDS011;65265;53.200;6.080;2023-02-10T08:18:10;10.65;;;4.63;;
76433;SDS011;65265;53.200;6.080;2023-02-10T08:23:02;14.95;;;6.07;;
76433;SDS011;65265;53.200;6.080;2023-02-10T08:27:55;15.82;;;7.53;;
76433;SDS011;65265;53.200;6.080;2023-02-10T08:32:46;14.90;;;5.88;;
76433;SDS011;65265;53.200;6.080;2023-02-10T08:37:42;11.43;;;5.50;;
76433;SDS011;65265;53.200;6.080;2023-02-10T08:42:34;17.40;;;6.57;;
76433;SDS011;65265;53.200;6.080;2023-02-10T08:47:25;13.93;;;5.53;;
76433;SDS011;65265;53.200;6.080;2023-02-10T08:52:17;12.35;;;5.88;;
76433;SDS011;65265;53.200;6.080;2023-02-10T08:57:12;15.65;;;6.97;;
76433;SDS011;65265;53.200;6.080;2023-02-10T09:02:04;13.57;;;5.80;;
76433;SDS011;65265;53.200;6.080;2023-02-10T09:06:57;17.85;;;6.60;;
76433;SDS011;65265;53.200;6.080;2023-02-10T09:11:49;18.83;;;6.70;;
76433;SDS011;65265;53.200;6.080;2023-02-10T09:16:57;15.25;;;5.35;;
76433;SDS011;65265;53.200;6.080;2023-02-10T09:21:49;12.48;;;5.28;;
76433;SDS011;65265;53.200;6.080;2023-02-10T09:26:41;11.18;;;5.30;;
76433;SDS011;65265;53.200;6.080;2023-02-10T09:31:33;15.77;;;4.68;;
76433;SDS011;65265;53.200;6.080;2023-02-10T09:36:27;13.95;;;5.95;;
76433;SDS011;65265;53.200;6.080;2023-02-10T09:41:22;15.07;;;4.63;;
76433;SDS011;65265;53.200;6.080;2023-02-10T09:46:26;17.20;;;5.63;;
76433;SDS011;65265;53.200;6.080;2023-02-10T09:51:31;15.82;;;5.45;;
76433;SDS011;65265;53.200;6.080;2023-02-10T09:56:34;15.05;;;5.13;;
76433;SDS011;65265;53.200;6.080;2023-02-10T10:01:29;12.30;;;4.90;;
76433;SDS011;65265;53.200;6.080;2023-02-10T10:06:26;16.50;;;5.78;;
76433;SDS011;65265;53.200;6.080;2023-02-10T10:11:32;8.65;;;4.03;;
76433;SDS011;65265;53.200;6.080;2023-02-10T10:16:40;11.05;;;5.53;;
76433;SDS011;65265;53.200;6.080;2023-02-10T10:21:41;16.20;;;4.80;;
76433;SDS011;65265;53.200;6.080;2023-02-10T10:26:41;18.55;;;5.20;;
76433;SDS011;65265;53.200;6.080;2023-02-10T10:31:41;14.40;;;4.65;;
76433;SDS011;65265;53.200;6.080;2023-02-10T10:36:37;18.10;;;5.55;;
76433;SDS011;65265;53.200;6.080;2023-02-10T10:41:35;12.18;;;4.28;;
76433;SDS011;65265;53.200;6.080;2023-02-10T10:46:33;17.63;;;5.18;;
76433;SDS011;65265;53.200;6.080;2023-02-10T10:51:29;11.25;;;4.20;;
76433;SDS011;65265;53.200;6.080;2023-02-10T10:56:28;14.98;;;5.38;;
76433;SDS011;65265;53.200;6.080;2023-02-10T11:01:32;14.20;;;4.32;;
76433;SDS011;65265;53.200;6.080;2023-02-10T11:06:26;16.48;;;5.45;;
76433;SDS011;65265;53.200;6.080;2023-02-10T11:16:22;15.73;;;3.83;;
76433;SDS011;65265;53.200;6.080;2023-02-10T11:21:16;10.93;;;3.17;;
76433;SDS011;65265;53.200;6.080;2023-02-10T11:26:16;17.75;;;4.00;;
76433;SDS011;65265;53.200;6.080;2023-02-10T11:31:14;16.95;;;4.15;;
76433;SDS011;65265;53.200;6.080;2023-02-10T11:36:27;8.50;;;3.50;;
76433;SDS011;65265;53.200;6.080;2023-02-10T11:41:27;14.13;;;3.50;;
76433;SDS011;65265;53.200;6.080;2023-02-10T11:46:22;16.00;;;4.63;;
76433;SDS011;65265;53.200;6.080;2023-02-10T11:51:16;6.40;;;2.58;;
76433;SDS011;65265;53.200;6.080;2023-02-10T11:56:13;14.90;;;2.83;;
76433;SDS011;65265;53.200;6.080;2023-02-10T12:01:11;13.25;;;3.25;;
76433;SDS011;65265;53.200;6.080;2023-02-10T12:06:10;9.25;;;2.38;;
76433;SDS011;65265;53.200;6.080;2023-02-10T12:11:09;14.63;;;2.40;;
76433;SDS011;65265;53.200;6.080;2023-02-10T12:16:12;8.32;;;1.40;;
76433;SDS011;65265;53.200;6.080;2023-02-10T12:21:15;8.13;;;2.17;;
76433;SDS011;65265;53.200;6.080;2023-02-10T12:26:22;9.13;;;1.30;;
76433;SDS011;65265;53.200;6.080;2023-02-10T12:31:20;6.35;;;1.42;;
76433;SDS011;65265;53.200;6.080;2023-02-10T12:36:20;9.82;;;1.20;;
76433;SDS011;65265;53.200;6.080;2023-02-10T12:41:18;11.25;;;3.58;;
76433;SDS011;65265;53.200;6.080;2023-02-10T12:46:24;7.88;;;2.20;;
76433;SDS011;65265;53.200;6.080;2023-02-10T12:51:30;10.68;;;2.72;;
76433;SDS011;65265;53.200;6.080;2023-02-10T12:56:32;14.07;;;1.50;;
76433;SDS011;65265;53.200;6.080;2023-02-10T13:01:29;9.05;;;1.55;;
76433;SDS011;65265;53.200;6.080;2023-02-10T13:06:26;5.43;;;1.38;;
76433;SDS011;65265;53.200;6.080;2023-02-10T13:11:23;10.52;;;1.92;;
76433;SDS011;65265;53.200;6.080;2023-02-10T13:16:24;10.93;;;2.47;;
76433;SDS011;65265;53.200;6.080;2023-02-10T13:21:22;10.43;;;2.28;;
76433;SDS011;65265;53.200;6.080;2023-02-10T13:26:24;9.32;;;2.38;;
76433;SDS011;65265;53.200;6.080;2023-02-10T13:36:28;8.98;;;2.17;;
76433;SDS011;65265;53.200;6.080;2023-02-10T13:41:24;9.48;;;1.38;;
76433;SDS011;65265;53.200;6.080;2023-02-10T13:46:38;6.07;;;1.77;;
76433;SDS011;65265;53.200;6.080;2023-02-10T13:51:30;6.10;;;1.67;;
76433;SDS011;65265;53.200;6.080;2023-02-10T13:56:26;12.18;;;1.77;;
76433;SDS011;65265;53.200;6.080;2023-02-10T14:01:33;6.22;;;1.02;;
76433;SDS011;65265;53.200;6.080;2023-02-10T14:06:36;8.15;;;1.80;;
76433;SDS011;65265;53.200;6.080;2023-02-10T14:11:30;11.35;;;1.70;;
76433;SDS011;65265;53.200;6.080;2023-02-10T14:16:31;7.20;;;2.05;;
76433;SDS011;65265;53.200;6.080;2023-02-10T14:21:27;8.65;;;1.80;;
76433;SDS011;65265;53.200;6.080;2023-02-10T14:26:32;8.98;;;1.65;;
76433;SDS011;65265;53.200;6.080;2023-02-10T14:31:26;6.43;;;1.00;;
76433;SDS011;65265;53.200;6.080;2023-02-10T14:36:21;11.43;;;2.55;;
76433;SDS011;65265;53.200;6.080;2023-02-10T14:41:14;9.60;;;1.67;;
76433;SDS011;65265;53.200;6.080;2023-02-10T14:46:06;6.90;;;1.95;;
76433;SDS011;65265;53.200;6.080;2023-02-10T14:51:03;6.13;;;1.90;;
76433;SDS011;65265;53.200;6.080;2023-02-10T14:55:57;13.48;;;2.95;;
76433;SDS011;65265;53.200;6.080;2023-02-10T15:00:57;9.63;;;2.70;;
76433;SDS011;65265;53.200;6.080;2023-02-10T15:06:01;7.72;;;1.88;;
76433;SDS011;65265;53.200;6.080;2023-02-10T15:10:53;6.38;;;1.88;;
76433;SDS011;65265;53.200;6.080;2023-02-10T15:15:47;19.15;;;3.38;;
76433;SDS011;65265;53.200;6.080;2023-02-10T15:20:49;8.93;;;2.28;;
76433;SDS011;65265;53.200;6.080;2023-02-10T15:25:42;8.18;;;3.03;;
76433;SDS011;65265;53.200;6.080;2023-02-10T15:30:40;7.82;;;3.08;;
76433;SDS011;65265;53.200;6.080;2023-02-10T15:35:36;6.75;;;2.53;;
76433;SDS011;65265;53.200;6.080;2023-02-10T15:40:29;7.03;;;2.97;;
76433;SDS011;65265;53.200;6.080;2023-02-10T15:45:21;10.38;;;2.47;;
76433;SDS011;65265;53.200;6.080;2023-02-10T15:50:13;7.00;;;2.55;;
76433;SDS011;65265;53.200;6.080;2023-02-10T15:55:06;7.95;;;2.22;;
76433;SDS011;65265;53.200;6.080;2023-02-10T16:00:09;11.77;;;2.30;;
76433;SDS011;65265;53.200;6.080;2023-02-10T16:05:07;10.18;;;3.60;;
76433;SDS011;65265;53.200;6.080;2023-02-10T16:09:58;5.88;;;2.45;;
76433;SDS011;65265;53.200;6.080;2023-02-10T16:14:49;8.57;;;2.15;;
76433;SDS011;65265;53.200;6.080;2023-02-10T16:19:43;8.65;;;2.55;;
76433;SDS011;65265;53.200;6.080;2023-02-10T16:24:35;8.60;;;1.92;;
76433;SDS011;65265;53.200;6.080;2023-02-10T16:29:28;8.95;;;2.00;;
76433;SDS011;65265;53.200;6.080;2023-02-10T16:34:21;7.97;;;3.42;;
76433;SDS011;65265;53.200;6.080;2023-02-10T16:39:14;6.25;;;2.92;;
76433;SDS011;65265;53.200;6.080;2023-02-10T16:44:07;9.07;;;2.78;;
76433;SDS011;65265;53.200;6.080;2023-02-10T16:48:59;6.85;;;2.55;;
76433;SDS011;65265;53.200;6.080;2023-02-10T16:53:50;6.60;;;2.55;;
76433;SDS011;65265;53.200;6.080;2023-02-10T16:58:46;10.35;;;2.85;;
76433;SDS011;65265;53.200;6.080;2023-02-10T17:03:38;10.63;;;4.03;;
76433;SDS011;65265;53.200;6.080;2023-02-10T17:08:30;10.45;;;3.83;;
76433;SDS011;65265;53.200;6.080;2023-02-10T17:13:22;9.88;;;2.65;;
76433;SDS011;65265;53.200;6.080;2023-02-10T17:18:15;13.30;;;3.70;;
76433;SDS011;65265;53.200;6.080;2023-02-10T17:23:07;7.30;;;3.15;;
76433;SDS011;65265;53.200;6.080;2023-02-10T17:28:01;6.95;;;3.42;;
76433;SDS011;65265;53.200;6.080;2023-02-10T17:32:57;9.68;;;3.40;;
76433;SDS011;65265;53.200;6.080;2023-02-10T17:37:50;8.57;;;3.60;;
76433;SDS011;65265;53.200;6.080;2023-02-10T17:42:56;8.75;;;4.63;;
76433;SDS011;65265;53.200;6.080;2023-02-10T17:47:47;7.78;;;2.83;;
76433;SDS011;65265;53.200;6.080;2023-02-10T17:52:39;10.65;;;4.03;;
76433;SDS011;65265;53.200;6.080;2023-02-10T17:57:32;11.60;;;3.75;;
76433;SDS011;65265;53.200;6.080;2023-02-10T18:02:23;11.60;;;5.35;;
76433;SDS011;65265;53.200;6.080;2023-02-10T18:07:15;17.27;;;4.10;;
76433;SDS011;65265;53.200;6.080;2023-02-10T18:12:07;10.27;;;4.80;;
76433;SDS011;65265;53.200;6.080;2023-02-10T18:17:03;16.52;;;6.03;;
76433;SDS011;65265;53.200;6.080;2023-02-10T18:26:46;19.58;;;8.45;;
76433;SDS011;65265;53.200;6.080;2023-02-10T18:31:38;17.33;;;6.68;;
76433;SDS011;65265;53.200;6.080;2023-02-10T18:36:31;22.63;;;8.13;;
76433;SDS011;65265;53.200;6.080;2023-02-10T18:41:24;22.08;;;8.27;;
76433;SDS011;65265;53.200;6.080;2023-02-10T18:46:16;17.98;;;8.02;;
76433;SDS011;65265;53.200;6.080;2023-02-10T18:51:09;20.13;;;8.20;;
76433;SDS011;65265;53.200;6.080;2023-02-10T18:56:04;12.43;;;6.65;;
76433;SDS011;65265;53.200;6.080;2023-02-10T19:00:57;15.65;;;6.22;;
76433;SDS011;65265;53.200;6.080;2023-02-10T19:05:48;14.35;;;4.65;;
76433;SDS011;65265;53.200;6.080;2023-02-10T19:10:40;13.73;;;4.85;;
76433;SDS011;65265;53.200;6.080;2023-02-10T19:15:33;18.42;;;5.72;;
76433;SDS011;65265;53.200;6.080;2023-02-10T19:20:25;18.52;;;5.55;;
76433;SDS011;65265;53.200;6.080;2023-02-10T19:25:17;14.15;;;4.25;;
76433;SDS011;65265;53.200;6.080;2023-02-10T19:30:09;15.93;;;4.15;;
76433;SDS011;65265;53.200;6.080;2023-02-10T19:35:04;10.73;;;4.05;;
76433;SDS011;65265;53.200;6.080;2023-02-10T19:39:56;10.57;;;3.55;;
76433;SDS011;65265;53.200;6.080;2023-02-10T19:44:48;16.00;;;4.32;;
76433;SDS011;65265;53.200;6.080;2023-02-10T19:49:39;12.98;;;3.63;;
76433;SDS011;65265;53.200;6.080;2023-02-10T19:54:32;15.13;;;3.97;;
76433;SDS011;65265;53.200;6.080;2023-02-10T19:59:24;11.88;;;4.85;;
76433;SDS011;65265;53.200;6.080;2023-02-10T20:04:16;8.48;;;3.92;;
76433;SDS011;65265;53.200;6.080;2023-02-10T20:09:07;13.45;;;3.75;;
76433;SDS011;65265;53.200;6.080;2023-02-10T20:14:02;14.50;;;3.13;;
76433;SDS011;65265;53.200;6.080;2023-02-10T20:18:55;9.80;;;4.78;;
76433;SDS011;65265;53.200;6.080;2023-02-10T20:23:46;12.02;;;3.53;;
76433;SDS011;65265;53.200;6.080;2023-02-10T20:28:39;26.45;;;4.88;;
76433;SDS011;65265;53.200;6.080;2023-02-10T20:33:32;9.75;;;3.35;;
76433;SDS011;65265;53.200;6.080;2023-02-10T20:43:16;23.05;;;5.90;;
76433;SDS011;65265;53.200;6.080;2023-02-10T20:48:07;18.60;;;4.07;;
76433;SDS011;65265;53.200;6.080;2023-02-10T20:53:01;13.48;;;4.65;;
76433;SDS011;65265;53.200;6.080;2023-02-10T20:57:52;20.42;;;3.88;;
76433;SDS011;65265;53.200;6.080;2023-02-10T21:02:44;18.25;;;5.22;;
76433;SDS011;65265;53.200;6.080;2023-02-10T21:07:36;14.95;;;3.53;;
76433;SDS011;65265;53.200;6.080;2023-02-10T21:12:29;19.58;;;4.65;;
76433;SDS011;65265;53.200;6.080;2023-02-10T21:17:21;11.93;;;4.80;;
76433;SDS011;65265;53.200;6.080;2023-02-10T21:22:13;12.98;;;4.13;;
76433;SDS011;65265;53.200;6.080;2023-02-10T21:27:05;18.45;;;5.22;;
76433;SDS011;65265;53.200;6.080;2023-02-10T21:31:59;17.80;;;3.65;;
76433;SDS011;65265;53.200;6.080;2023-02-10T21:41:43;18.52;;;4.38;;
76433;SDS011;65265;53.200;6.080;2023-02-10T21:46:37;11.68;;;4.07;;
76433;SDS011;65265;53.200;6.080;2023-02-10T21:51:32;16.65;;;4.18;;
76433;SDS011;65265;53.200;6.080;2023-02-10T21:56:23;15.57;;;3.30;;
76433;SDS011;65265;53.200;6.080;2023-02-10T22:01:15;17.27;;;4.35;;
76433;SDS011;65265;53.200;6.080;2023-02-10T22:06:07;16.02;;;3.08;;
76433;SDS011;65265;53.200;6.080;2023-02-10T22:11:04;12.95;;;3.72;;
76433;SDS011;65265;53.200;6.080;2023-02-10T22:15:57;16.33;;;3.80;;
76433;SDS011;65265;53.200;6.080;2023-02-10T22:20:49;13.75;;;3.90;;
76433;SDS011;65265;53.200;6.080;2023-02-10T22:25:42;9.95;;;2.90;;
76433;SDS011;65265;53.200;6.080;2023-02-10T22:30:36;12.45;;;2.92;;
76433;SDS011;65265;53.200;6.080;2023-02-10T22:35:28;12.13;;;2.45;;
76433;SDS011;65265;53.200;6.080;2023-02-10T22:40:20;8.80;;;3.10;;
76433;SDS011;65265;53.200;6.080;2023-02-10T22:45:11;10.30;;;2.78;;
76433;SDS011;65265;53.200;6.080;2023-02-10T22:50:05;17.23;;;4.40;;
76433;SDS011;65265;53.200;6.080;2023-02-10T22:54:57;8.50;;;2.75;;
76433;SDS011;65265;53.200;6.080;2023-02-10T22:59:50;7.32;;;3.10;;
76433;SDS011;65265;53.200;6.080;2023-02-10T23:04:41;10.68;;;2.60;;
76433;SDS011;65265;53.200;6.080;2023-02-10T23:09:34;16.38;;;2.40;;
76433;SDS011;65265;53.200;6.080;2023-02-10T23:14:27;12.15;;;2.53;;
76433;SDS011;65265;53.200;6.080;2023-02-10T23:19:18;15.15;;;3.22;;
76433;SDS011;65265;53.200;6.080;2023-02-10T23:24:11;11.68;;;3.75;;
76433;SDS011;65265;53.200;6.080;2023-02-10T23:29:05;15.63;;;3.33;;
76433;SDS011;65265;53.200;6.080;2023-02-10T23:34:00;16.92;;;3.72;;
76433;SDS011;65265;53.200;6.080;2023-02-10T23:38:52;16.77;;;3.30;;
76433;SDS011;65265;53.200;6.080;2023-02-10T23:43:44;12.18;;;2.83;;
76433;SDS011;65265;53.200;6.080;2023-02-10T23:48:38;14.02;;;3.20;;
76433;SDS011;65265;53.200;6.080;2023-02-10T23:53:30;15.55;;;4.03;;
76433;SDS011;65265;53.200;6.080;2023-02-10T23:58:22;17.40;;;3.75;;
